Ust'- Umal'Ta, Russia
Current Conditions -  °F | °C
As of 3:00 AM on Friday 24 Oct 2014 (Local Time) from UHHH Reporting Station
Smoke Smoke  
Wind Chill: 40°   Ceiling: 10000
Heat Index: 46°   Visibility: 3mi
Dew Point: 34°   Wind: 16mph
Humidity: 62%   Direction: 250°WSW
Pressure: 29.8"   Gusts: NA
Location:  51.63°N, 133.32°E
Report Text: UHHH 231700Z 25007MPS 5000 FU OVC100 08/01 Q1009 NOSIG RMKQFE750/1000 23090060
Loading
Personal Weather Stations






























Interactive Weather Map New forecast layout! Learn more

10-Day Weather Forecast

Advertisements
Track Severe Weather on mobile